Página principal
METAR-TAF:

METAR-TAF

Aeroportos :

Novosibirsk, Rússia

latitude: 55-01N, longitude: 082-38E, altura: 111 m

Observação actual do tempo

O boletim foi feito há 39 minutos, às 07:30 UTC
Vento 6 kt de nor-nordeste
Temperatura 19°C
Humidade 56%
Pressão 1021 hPa
Visibilidade 10 km ou mais
Nuvens fragmentadasa uma altura de 4000 ft, Cumulonimbus.

METAR: UNNT 210730Z 02003MPS 9999 BKN040CB 19/10 Q1021 R25/090070 R34/090070 NOSIG RMK QFE755/1007

Hora: 15:09 (08:09 UTC)

Previsão

O boletim foi feito há 3 horas e 9 minutos, às 05:00 UTC
Previsão válida de 21 às 06 UTC a 22 às 06 UTC
Vento 6 kt de nor-noroeste com rajadas de 16 kt
Visibilidade 10 km ou mais
Nuvens fragmentadasa uma altura de 2000 ft, Cumulonimbus.

TAF: UNNT 210500Z 2106/2206 34003G08MPS 9999 BKN020CB

Observações e previsões do tempo de mais de 4000 aeroportos (mensagens METAR e TAF).

As estações disponíveis são os pontos amarelos e vermelhos sobre o mapa.

Mova o rato sobre o mapa para ver o nome da estação.

Depois clique no ponto para visualizar as observações e previsões meteorológicas.

Para alterar o mapa : clique nos botões verdes com uma cruz preta para aumentar o zoom; no botão verde com uma pitada de zoom; ou nas setas verdes para mapas adjacentes.


METAR-TAF: